createdAt,value
2018-10-21T00:01:23.401Z,100.00
2018-10-21T00:03:52.477Z,100.00
2018-10-21T00:06:21.847Z,100.00
2018-10-21T00:08:50.917Z,100.00
2018-10-21T00:11:19.897Z,100.00
2018-10-21T00:13:49.077Z,100.00
2018-10-21T00:16:18.080Z,100.00
2018-10-21T00:18:47.156Z,100.00
2018-10-21T00:21:16.540Z,100.00
2018-10-21T00:23:45.513Z,100.00
2018-10-21T00:26:14.508Z,100.00
2018-10-21T00:28:43.553Z,100.00
2018-10-21T00:31:12.575Z,100.00
2018-10-21T00:33:41.608Z,100.00
2018-10-21T00:36:10.938Z,100.00
2018-10-21T00:38:39.958Z,100.00
2018-10-21T00:41:09.058Z,100.00
2018-10-21T00:43:38.106Z,100.00
2018-10-21T00:46:07.571Z,100.00
2018-10-21T00:48:36.801Z,100.00
2018-10-21T00:51:06.338Z,100.00
2018-10-21T00:53:35.339Z,100.00
2018-10-21T00:56:04.419Z,100.00
2018-10-21T00:58:33.855Z,100.00
2018-10-21T01:01:02.889Z,100.00
2018-10-21T01:03:31.924Z,100.00
2018-10-21T01:06:01.043Z,100.00
2018-10-21T01:08:30.065Z,100.00
2018-10-21T01:10:59.057Z,100.00
2018-10-21T01:13:28.347Z,100.00
2018-10-21T01:15:57.332Z,100.00
2018-10-21T01:18:26.525Z,100.00
2018-10-21T01:20:55.656Z,100.00
2018-10-21T01:23:24.701Z,100.00
2018-10-21T01:25:53.754Z,100.00
2018-10-21T01:28:22.800Z,100.00
2018-10-21T01:30:51.828Z,100.00
2018-10-21T01:33:20.764Z,100.00
2018-10-21T01:35:50.136Z,100.00
2018-10-21T01:38:19.268Z,100.00
2018-10-21T01:40:49.124Z,100.00
2018-10-21T01:43:20.197Z,100.00
2018-10-21T01:45:49.217Z,100.00
2018-10-21T01:48:19.340Z,100.00
2018-10-21T01:50:48.823Z,100.00
2018-10-21T01:53:18.697Z,100.00
2018-10-21T01:55:47.668Z,100.00
2018-10-21T01:58:16.738Z,100.00
2018-10-21T02:00:45.931Z,100.00
2018-10-21T02:03:15.025Z,100.00
2018-10-21T02:05:45.078Z,100.00
2018-10-21T02:08:14.185Z,100.00
2018-10-21T02:10:43.308Z,100.00
2018-10-21T02:13:12.425Z,100.00
2018-10-21T02:15:41.381Z,100.00
2018-10-21T02:18:10.415Z,100.00
2018-10-21T02:20:39.488Z,100.00
2018-10-21T02:23:08.552Z,100.00
2018-10-21T02:25:37.682Z,100.00
2018-10-21T02:28:07.142Z,100.00
2018-10-21T02:30:36.197Z,100.00
2018-10-21T02:33:05.364Z,100.00
2018-10-21T02:35:34.433Z,100.00
2018-10-21T02:38:03.443Z,100.00
2018-10-21T02:41:44.929Z,100.00
2018-10-21T02:44:17.114Z,100.00
2018-10-21T02:46:46.919Z,100.00
2018-10-21T02:49:16.770Z,100.00
2018-10-21T02:51:50.985Z,100.00
2018-10-21T02:54:27.230Z,100.00
2018-10-21T02:56:56.344Z,100.00
2018-10-21T02:59:25.797Z,100.00
2018-10-21T03:01:54.907Z,100.00
2018-10-21T03:04:24.665Z,100.00
2018-10-21T03:06:53.708Z,100.00
2018-10-21T03:09:22.812Z,100.00
2018-10-21T03:11:52.013Z,100.00
2018-10-21T03:14:21.095Z,100.00
2018-10-21T03:16:50.125Z,100.00
2018-10-21T03:19:19.256Z,100.00
2018-10-21T03:21:48.298Z,100.00
2018-10-21T03:24:17.543Z,100.00
2018-10-21T03:26:47.516Z,99.72
2018-10-21T03:29:16.568Z,98.79
2018-10-21T03:31:45.732Z,100.00
2018-10-21T03:34:14.893Z,98.58
2018-10-21T03:36:43.899Z,100.00
2018-10-21T03:39:12.865Z,99.97
2018-10-21T03:41:42.262Z,100.00
2018-10-21T03:44:11.734Z,100.00
2018-10-21T03:46:40.949Z,100.00
2018-10-21T03:49:10.101Z,93.12
2018-10-21T03:51:39.167Z,96.53
2018-10-21T03:54:08.349Z,99.31
2018-10-21T03:56:37.828Z,99.00
2018-10-21T03:59:07.060Z,99.51
2018-10-21T04:01:36.279Z,99.77
2018-10-21T04:04:06.056Z,100.00
2018-10-21T04:06:35.250Z,99.89
2018-10-21T04:09:05.561Z,100.00
2018-10-21T04:11:34.900Z,100.00
2018-10-21T04:14:04.188Z,100.00
2018-10-21T04:16:33.435Z,100.00
2018-10-21T04:19:02.772Z,100.00
2018-10-21T04:21:32.101Z,100.00
2018-10-21T04:24:01.563Z,100.00
2018-10-21T04:26:30.844Z,100.00
2018-10-21T04:28:59.988Z,100.00
2018-10-21T04:31:29.142Z,100.00
2018-10-21T04:33:58.862Z,100.00
2018-10-21T04:36:29.979Z,100.00
2018-10-21T04:40:11.222Z,100.00
2018-10-21T04:42:40.965Z,100.00
2018-10-21T04:45:10.893Z,100.00
2018-10-21T04:47:40.292Z,100.00
2018-10-21T04:50:10.714Z,100.00
2018-10-21T04:52:39.968Z,100.00
2018-10-21T04:55:13.595Z,100.00
2018-10-21T04:57:44.159Z,100.00
2018-10-21T05:00:15.819Z,100.00
2018-10-21T05:02:45.061Z,100.00
2018-10-21T05:05:15.275Z,100.00
2018-10-21T05:07:44.876Z,100.00
2018-10-21T05:10:23.874Z,100.00
2018-10-21T05:12:53.307Z,100.00
2018-10-21T05:15:24.555Z,100.00
2018-10-21T05:17:54.900Z,100.00
2018-10-21T05:20:24.169Z,100.00
2018-10-21T05:22:53.704Z,100.00
2018-10-21T05:25:23.452Z,100.00
2018-10-21T05:27:52.624Z,100.00
2018-10-21T05:30:21.854Z,100.00
2018-10-21T05:32:51.393Z,100.00
2018-10-21T05:35:21.340Z,100.00
2018-10-21T05:37:50.558Z,100.00
2018-10-21T05:40:21.497Z,100.00
2018-10-21T05:42:51.096Z,100.00
2018-10-21T05:45:20.398Z,100.00
2018-10-21T05:47:49.538Z,100.00
2018-10-21T05:50:18.892Z,100.00
2018-10-21T05:52:48.086Z,100.00
2018-10-21T05:55:17.476Z,100.00
2018-10-21T05:57:47.021Z,100.00
2018-10-21T06:00:18.038Z,100.00
2018-10-21T06:02:47.669Z,100.00
2018-10-21T06:05:51.058Z,100.00
2018-10-21T06:08:20.250Z,100.00
2018-10-21T06:10:49.421Z,100.00
2018-10-21T06:13:18.681Z,100.00
2018-10-21T06:15:48.036Z,100.00
2018-10-21T06:18:22.758Z,100.00
2018-10-21T06:20:55.006Z,100.00
2018-10-21T06:23:24.198Z,100.00
2018-10-21T06:25:53.596Z,100.00
2018-10-21T06:28:23.147Z,100.00
2018-10-21T06:30:52.307Z,100.00
2018-10-21T06:33:21.441Z,100.00
2018-10-21T06:35:50.632Z,100.00
2018-10-21T06:38:20.026Z,100.00
2018-10-21T06:40:49.222Z,100.00
2018-10-21T06:43:18.559Z,100.00
2018-10-21T06:45:47.746Z,100.00
2018-10-21T06:48:16.989Z,100.00
2018-10-21T06:50:46.503Z,100.00
2018-10-21T06:53:15.962Z,100.00
2018-10-21T06:55:45.350Z,100.00
2018-10-21T06:58:14.840Z,100.00
2018-10-21T07:00:44.110Z,100.00
2018-10-21T07:03:13.538Z,100.00
2018-10-21T07:06:19.777Z,99.62
2018-10-21T07:08:49.739Z,100.00
2018-10-21T07:11:19.472Z,100.00
2018-10-21T07:13:48.939Z,100.00
2018-10-21T07:16:18.300Z,100.00
2018-10-21T07:18:48.489Z,100.00
2018-10-21T07:21:18.287Z,100.00
2018-10-21T07:23:48.041Z,100.00
2018-10-21T07:26:17.365Z,100.00
2018-10-21T07:28:46.523Z,100.00
2018-10-21T07:31:15.797Z,100.00
2018-10-21T07:33:45.201Z,100.00
2018-10-21T07:36:14.405Z,100.00
2018-10-21T07:38:44.553Z,100.00
2018-10-21T07:41:14.075Z,100.00
2018-10-21T07:43:43.622Z,100.00
2018-10-21T07:46:12.912Z,100.00
2018-10-21T07:48:42.005Z,97.30
2018-10-21T07:51:11.356Z,96.92
2018-10-21T07:53:40.696Z,100.00
2018-10-21T07:56:09.828Z,99.32
2018-10-21T07:58:39.035Z,94.49
2018-10-21T08:01:08.514Z,97.05
2018-10-21T08:03:37.576Z,96.26
2018-10-21T08:06:43.046Z,91.90
2018-10-21T08:09:12.717Z,92.99
2018-10-21T08:11:41.865Z,96.08
2018-10-21T08:14:11.041Z,93.13
2018-10-21T08:16:40.558Z,92.33
2018-10-21T08:19:09.620Z,93.69
2018-10-21T08:21:38.918Z,88.25
2018-10-21T08:24:08.157Z,89.58
2018-10-21T08:26:37.212Z,89.61
2018-10-21T08:29:06.640Z,88.37
2018-10-21T08:31:35.881Z,92.09
2018-10-21T08:34:05.141Z,90.92
2018-10-21T08:36:34.894Z,94.92
2018-10-21T08:39:04.529Z,97.29
2018-10-21T08:41:34.335Z,91.75
2018-10-21T08:44:04.111Z,88.00
2018-10-21T08:46:33.240Z,87.24
2018-10-21T08:49:02.416Z,87.05
2018-10-21T08:51:31.881Z,85.59
2018-10-21T08:54:01.014Z,84.40
2018-10-21T08:56:30.168Z,87.13
2018-10-21T08:58:59.994Z,84.39
2018-10-21T09:01:29.019Z,85.25
2018-10-21T09:03:58.201Z,81.48
2018-10-21T09:06:27.684Z,81.96
2018-10-21T09:08:56.765Z,83.26
2018-10-21T09:11:25.854Z,79.50
2018-10-21T09:13:55.220Z,77.29
2018-10-21T09:16:24.383Z,73.98
2018-10-21T09:18:53.743Z,74.52
2018-10-21T09:21:22.909Z,75.17
2018-10-21T09:23:52.980Z,76.92
2018-10-21T09:26:22.131Z,78.68
2018-10-21T09:28:51.254Z,71.88
2018-10-21T09:31:20.502Z,75.99
2018-10-21T09:33:49.727Z,75.59
2018-10-21T09:36:19.228Z,73.86
2018-10-21T09:38:48.303Z,72.69
2018-10-21T09:41:17.375Z,68.89
2018-10-21T09:43:46.921Z,69.42
2018-10-21T09:46:15.975Z,68.02
2018-10-21T09:48:45.109Z,63.90
2018-10-21T09:51:14.397Z,60.96
2018-10-21T09:53:43.488Z,69.00
2018-10-21T09:56:12.585Z,76.31
2018-10-21T09:58:41.751Z,68.71
2018-10-21T10:01:15.901Z,65.42
2018-10-21T10:03:45.076Z,59.63
2018-10-21T10:06:14.302Z,67.70
2018-10-21T10:08:44.095Z,67.54
2018-10-21T10:11:13.406Z,74.20
2018-10-21T10:13:42.511Z,65.04
2018-10-21T10:16:11.842Z,66.94
2018-10-21T10:18:41.323Z,69.69
2018-10-21T10:21:11.196Z,65.33
2018-10-21T10:23:40.259Z,67.63
2018-10-21T10:26:09.578Z,61.90
2018-10-21T10:28:38.826Z,60.79
2018-10-21T10:31:08.027Z,60.86
2018-10-21T10:33:37.343Z,55.27
2018-10-21T10:36:06.911Z,57.83
2018-10-21T10:38:36.021Z,56.04
2018-10-21T10:41:05.454Z,56.18
2018-10-21T10:43:34.793Z,56.37
2018-10-21T10:46:03.917Z,55.59
2018-10-21T10:48:33.058Z,57.04
2018-10-21T10:51:02.213Z,59.61
2018-10-21T10:53:31.462Z,59.44
2018-10-21T10:56:00.868Z,56.34
2018-10-21T10:58:30.112Z,57.32
2018-10-21T11:00:59.358Z,57.61
2018-10-21T11:03:28.631Z,58.05
2018-10-21T11:05:57.856Z,58.30
2018-10-21T11:08:26.991Z,55.88
2018-10-21T11:10:56.463Z,53.86
2018-10-21T11:13:25.563Z,55.62
2018-10-21T11:15:54.924Z,53.58
2018-10-21T11:18:24.183Z,53.54
2018-10-21T11:20:53.474Z,54.79
2018-10-21T11:23:22.950Z,52.90
2018-10-21T11:25:52.654Z,53.82
2018-10-21T11:28:21.790Z,54.35
2018-10-21T11:30:51.058Z,54.77
2018-10-21T11:33:20.534Z,54.34
2018-10-21T11:35:49.715Z,57.22
2018-10-21T11:38:18.894Z,61.25
2018-10-21T11:40:48.250Z,63.55
2018-10-21T11:43:17.556Z,59.33
2018-10-21T11:45:53.845Z,57.75
2018-10-21T11:48:23.608Z,54.88
2018-10-21T11:50:52.686Z,56.43
2018-10-21T11:53:21.962Z,53.69
2018-10-21T11:55:51.056Z,54.06
2018-10-21T11:58:20.424Z,51.04
2018-10-21T12:00:49.951Z,54.42
2018-10-21T12:03:19.252Z,54.68
2018-10-21T12:05:48.387Z,53.90
2018-10-21T12:08:17.925Z,62.38
2018-10-21T12:10:47.146Z,58.04
2018-10-21T12:13:16.826Z,54.99
2018-10-21T12:15:46.402Z,54.06
2018-10-21T12:18:15.605Z,58.02
2018-10-21T12:20:44.936Z,65.62
2018-10-21T12:23:14.151Z,56.23
2018-10-21T12:25:43.498Z,63.06
2018-10-21T12:28:12.683Z,56.86
2018-10-21T12:30:41.714Z,52.57
2018-10-21T12:33:10.779Z,62.20
2018-10-21T12:35:40.046Z,59.60
2018-10-21T12:38:09.382Z,61.19
2018-10-21T12:40:38.581Z,67.12
2018-10-21T12:43:08.189Z,69.78
2018-10-21T12:45:37.336Z,65.61
2018-10-21T12:48:06.556Z,62.46
2018-10-21T12:50:35.693Z,64.06
2018-10-21T12:53:05.170Z,64.14
2018-10-21T12:55:38.485Z,71.09
2018-10-21T12:58:07.810Z,69.24
2018-10-21T13:00:36.982Z,65.48
2018-10-21T13:03:06.194Z,70.93
2018-10-21T13:05:36.459Z,74.22
2018-10-21T13:08:05.851Z,70.12
2018-10-21T13:10:35.226Z,70.08
2018-10-21T13:13:04.771Z,66.68
2018-10-21T13:15:33.901Z,61.12
2018-10-21T13:18:03.154Z,61.35
2018-10-21T13:20:32.344Z,61.89
2018-10-21T13:23:01.760Z,61.00
2018-10-21T13:25:30.936Z,63.80
2018-10-21T13:28:00.271Z,61.58
2018-10-21T13:30:29.396Z,63.22
2018-10-21T13:32:58.519Z,59.48
2018-10-21T13:35:28.146Z,60.39
2018-10-21T13:37:57.194Z,63.63
2018-10-21T13:40:26.464Z,61.91
2018-10-21T13:42:55.804Z,61.50
2018-10-21T13:45:25.075Z,61.32
2018-10-21T13:47:54.322Z,61.56
2018-10-21T13:50:24.179Z,62.60
2018-10-21T13:52:53.282Z,59.69
2018-10-21T13:55:22.450Z,60.08
2018-10-21T13:57:51.964Z,60.54
2018-10-21T14:00:21.195Z,60.27
2018-10-21T14:02:50.397Z,60.54
2018-10-21T14:05:19.488Z,60.72
2018-10-21T14:07:48.596Z,63.12
2018-10-21T14:10:18.569Z,61.22
2018-10-21T14:12:47.867Z,62.52
2018-10-21T14:15:17.064Z,64.94
2018-10-21T14:17:46.264Z,63.79
2018-10-21T14:20:15.773Z,66.48
2018-10-21T14:22:45.073Z,67.60
2018-10-21T14:25:14.212Z,68.45
2018-10-21T14:27:43.748Z,68.96
2018-10-21T14:30:12.889Z,74.22
2018-10-21T14:32:41.908Z,73.85
2018-10-21T14:35:11.702Z,74.87
2018-10-21T14:37:40.876Z,76.68
2018-10-21T14:40:12.575Z,75.28
2018-10-21T14:42:41.902Z,75.08
2018-10-21T14:45:12.600Z,76.83
2018-10-21T14:47:42.281Z,82.06
2018-10-21T14:50:12.679Z,84.03
2018-10-21T14:52:41.874Z,81.86
2018-10-21T14:55:11.748Z,85.98
2018-10-21T14:57:41.240Z,87.22
2018-10-21T15:00:12.274Z,87.82
2018-10-21T15:02:41.547Z,90.03
2018-10-21T15:05:12.395Z,92.32
2018-10-21T15:07:42.700Z,92.42
2018-10-21T15:10:12.291Z,92.94
2018-10-21T15:12:41.521Z,91.81
2018-10-21T15:15:11.339Z,93.62
2018-10-21T15:17:40.793Z,95.42
2018-10-21T15:22:39.248Z,90.87
2018-10-21T15:25:10.138Z,94.55
2018-10-21T15:27:39.505Z,84.46
2018-10-21T15:30:09.738Z,81.97
2018-10-21T15:32:39.687Z,87.66
2018-10-21T15:35:08.966Z,90.49
2018-10-21T15:37:38.331Z,95.99
2018-10-21T15:40:08.818Z,99.69
2018-10-21T15:42:37.981Z,100.00
2018-10-21T15:45:09.499Z,100.00
2018-10-21T15:47:38.982Z,100.00
2018-10-21T15:50:08.790Z,100.00
2018-10-21T15:52:38.211Z,100.00
2018-10-21T15:55:08.421Z,100.00
2018-10-21T15:57:37.484Z,100.00
2018-10-21T16:00:09.255Z,100.00
2018-10-21T16:02:38.590Z,100.00
2018-10-21T16:05:08.693Z,100.00
2018-10-21T16:07:38.914Z,95.33
2018-10-21T16:10:09.095Z,100.00
2018-10-21T16:12:38.477Z,100.00
2018-10-21T16:15:10.736Z,100.00
2018-10-21T16:17:39.918Z,100.00
2018-10-21T16:20:09.116Z,100.00
2018-10-21T16:22:40.027Z,100.00
2018-10-21T16:25:11.790Z,100.00
2018-10-21T16:27:41.858Z,100.00
2018-10-21T16:30:13.900Z,100.00
2018-10-21T16:32:44.002Z,100.00
2018-10-21T16:35:13.956Z,100.00
2018-10-21T16:37:43.208Z,100.00
2018-10-21T16:40:14.393Z,100.00
2018-10-21T16:42:43.513Z,100.00
2018-10-21T16:45:13.804Z,100.00
2018-10-21T16:47:43.515Z,100.00
2018-10-21T16:50:14.510Z,100.00
2018-10-21T16:52:44.810Z,100.00
2018-10-21T16:55:15.054Z,100.00
2018-10-21T16:57:44.204Z,100.00
2018-10-21T17:00:17.450Z,100.00
2018-10-21T17:02:47.264Z,100.00
2018-10-21T17:05:16.575Z,100.00
2018-10-21T17:07:45.867Z,100.00
2018-10-21T17:10:15.306Z,100.00
2018-10-21T17:12:44.212Z,100.00
2018-10-21T17:15:13.490Z,100.00
2018-10-21T17:17:43.538Z,100.00
2018-10-21T17:20:15.265Z,100.00
2018-10-21T17:22:44.913Z,100.00
2018-10-21T17:25:14.671Z,100.00
2018-10-21T17:27:44.877Z,100.00
2018-10-21T17:30:18.462Z,100.00
2018-10-21T17:32:48.250Z,100.00
2018-10-21T17:35:17.601Z,100.00
2018-10-21T17:37:47.227Z,100.00
2018-10-21T17:40:16.879Z,100.00
2018-10-21T17:42:46.902Z,100.00
2018-10-21T17:45:16.352Z,100.00
2018-10-21T17:47:45.808Z,100.00
2018-10-21T17:50:15.711Z,100.00
2018-10-21T17:52:45.761Z,100.00
2018-10-21T17:55:15.493Z,99.84
2018-10-21T17:57:44.706Z,99.72
2018-10-21T18:00:14.537Z,98.10
2018-10-21T18:02:43.702Z,98.25
2018-10-21T18:05:14.324Z,100.00
2018-10-21T18:07:43.846Z,100.00
2018-10-21T18:10:13.896Z,100.00
2018-10-21T18:12:43.005Z,100.00
2018-10-21T18:15:12.891Z,100.00
2018-10-21T18:17:42.567Z,100.00
2018-10-21T18:20:13.051Z,100.00
2018-10-21T18:22:42.287Z,100.00
2018-10-21T18:25:11.942Z,100.00
2018-10-21T18:27:41.547Z,100.00
2018-10-21T18:30:12.004Z,100.00
2018-10-21T18:32:42.001Z,100.00
2018-10-21T18:35:12.990Z,100.00
2018-10-21T18:37:42.275Z,100.00
2018-10-21T18:40:12.319Z,100.00
2018-10-21T18:42:42.951Z,100.00
2018-10-21T18:45:14.270Z,100.00
2018-10-21T18:47:44.041Z,100.00
2018-10-21T18:50:15.174Z,100.00
2018-10-21T18:52:44.691Z,100.00
2018-10-21T18:55:14.467Z,100.00
2018-10-21T18:57:43.635Z,100.00
2018-10-21T19:00:15.120Z,100.00
2018-10-21T19:02:44.697Z,100.00
2018-10-21T19:05:14.392Z,100.00
2018-10-21T19:07:43.756Z,100.00
2018-10-21T19:10:14.496Z,100.00
2018-10-21T19:12:43.625Z,100.00
2018-10-21T19:15:13.617Z,100.00
2018-10-21T19:17:43.210Z,100.00
2018-10-21T19:20:15.159Z,100.00
2018-10-21T19:22:44.737Z,100.00
2018-10-21T19:25:15.139Z,100.00
2018-10-21T19:27:45.370Z,100.00
2018-10-21T19:30:15.006Z,100.00
2018-10-21T19:32:44.570Z,100.00
2018-10-21T19:35:15.153Z,100.00
2018-10-21T19:37:44.361Z,100.00
2018-10-21T19:40:14.843Z,100.00
2018-10-21T19:42:44.287Z,100.00
2018-10-21T19:45:15.063Z,100.00
2018-10-21T19:47:44.130Z,100.00
2018-10-21T19:50:14.572Z,100.00
2018-10-21T19:52:44.228Z,100.00
2018-10-21T19:55:14.129Z,100.00
2018-10-21T19:57:44.077Z,100.00
2018-10-21T20:00:15.577Z,100.00
2018-10-21T20:02:45.267Z,100.00
2018-10-21T20:05:14.457Z,100.00
2018-10-21T20:07:43.509Z,100.00
2018-10-21T20:10:14.529Z,100.00
2018-10-21T20:12:44.047Z,100.00
2018-10-21T20:15:13.893Z,100.00
2018-10-21T20:17:43.246Z,100.00
2018-10-21T20:20:12.901Z,100.00
2018-10-21T20:22:41.924Z,100.00
2018-10-21T20:25:11.527Z,100.00
2018-10-21T20:27:41.302Z,100.00
2018-10-21T20:30:11.807Z,100.00
2018-10-21T20:32:41.491Z,100.00
2018-10-21T20:35:11.913Z,100.00
2018-10-21T20:37:41.123Z,100.00
2018-10-21T20:40:11.044Z,100.00
2018-10-21T20:42:40.511Z,100.00
2018-10-21T20:45:11.389Z,100.00
2018-10-21T20:47:40.511Z,100.00
2018-10-21T20:50:09.904Z,100.00
2018-10-21T20:52:39.457Z,100.00
2018-10-21T20:55:08.636Z,100.00
2018-10-21T20:57:37.953Z,100.00
2018-10-21T21:00:07.646Z,100.00
2018-10-21T21:02:36.708Z,100.00
2018-10-21T21:05:06.915Z,100.00
2018-10-21T21:07:37.484Z,100.00
2018-10-21T21:10:07.690Z,100.00
2018-10-21T21:12:36.981Z,100.00
2018-10-21T21:15:07.193Z,100.00
2018-10-21T21:17:36.404Z,100.00
2018-10-21T21:20:06.085Z,100.00
2018-10-21T21:22:35.925Z,100.00
2018-10-21T21:25:05.862Z,100.00
2018-10-21T21:27:35.370Z,100.00
2018-10-21T21:30:05.062Z,100.00
2018-10-21T21:32:34.369Z,100.00
2018-10-21T21:35:03.550Z,100.00
2018-10-21T21:37:33.037Z,100.00
2018-10-21T21:40:02.178Z,100.00
2018-10-21T21:42:31.363Z,100.00
2018-10-21T21:45:00.843Z,100.00
2018-10-21T21:47:29.858Z,100.00
2018-10-21T21:49:58.903Z,100.00
2018-10-21T21:52:28.010Z,100.00
2018-10-21T21:54:57.170Z,100.00
2018-10-21T21:57:26.307Z,100.00
2018-10-21T21:59:55.477Z,100.00
2018-10-21T22:02:24.768Z,100.00
2018-10-21T22:04:53.931Z,100.00
2018-10-21T22:07:23.353Z,100.00
2018-10-21T22:09:52.461Z,100.00
2018-10-21T22:12:21.724Z,100.00
2018-10-21T22:14:50.849Z,100.00
2018-10-21T22:17:19.999Z,100.00
2018-10-21T22:19:49.590Z,100.00
2018-10-21T22:22:19.126Z,100.00
2018-10-21T22:24:48.705Z,100.00
2018-10-21T22:27:17.883Z,100.00
2018-10-21T22:29:47.414Z,100.00
2018-10-21T22:32:16.663Z,100.00
2018-10-21T22:34:46.380Z,100.00
2018-10-21T22:37:15.900Z,100.00
2018-10-21T22:39:44.981Z,100.00
2018-10-21T22:42:14.382Z,100.00
2018-10-21T22:44:43.617Z,100.00
2018-10-21T22:47:13.000Z,100.00
2018-10-21T22:49:42.087Z,100.00
2018-10-21T22:52:11.724Z,100.00
2018-10-21T22:54:41.010Z,100.00
2018-10-21T22:57:15.616Z,100.00
2018-10-21T22:59:45.224Z,100.00
2018-10-21T23:02:14.795Z,100.00
2018-10-21T23:04:44.940Z,100.00
2018-10-21T23:07:14.461Z,100.00
2018-10-21T23:09:43.595Z,100.00
2018-10-21T23:12:13.353Z,100.00
2018-10-21T23:14:42.462Z,100.00
2018-10-21T23:17:11.689Z,100.00
2018-10-21T23:19:43.176Z,100.00
2018-10-21T23:22:12.393Z,100.00
2018-10-21T23:24:42.114Z,100.00
2018-10-21T23:27:12.313Z,100.00
2018-10-21T23:29:42.597Z,100.00
2018-10-21T23:32:11.772Z,100.00
2018-10-21T23:34:40.925Z,100.00
2018-10-21T23:37:10.246Z,100.00
2018-10-21T23:39:39.368Z,100.00
2018-10-21T23:42:09.450Z,100.00
2018-10-21T23:44:38.476Z,100.00
2018-10-21T23:47:07.590Z,100.00
2018-10-21T23:49:37.288Z,100.00
2018-10-21T23:52:07.928Z,100.00
2018-10-21T23:54:37.166Z,100.00
2018-10-21T23:57:07.807Z,100.00
2018-10-21T23:59:37.885Z,100.00
